Time,TemperatureF,DewpointF,PressureIn,WindDirection,WindDirectionDegrees,WindSpeedMPH,WindSpeedGustMPH,Humidity,HourlyPrecipIn,Conditions,Clouds,dailyrainin,SolarRadiationWatts/m^2,SoftwareType,DateUTC
2013-07-20 00:02:00,73.0,72.0,-100.00,NE,51,0.0,0.0,98,0.00,,,0.30,0.000000,,2013-07-20 05:02:00,
2013-07-20 00:22:00,73.0,72.0,-100.00,SE,141,0.0,0.0,98,0.00,,,0.30,0.000000,,2013-07-20 05:22:00,
2013-07-20 00:32:00,73.0,72.0,-100.00,SE,141,0.0,0.0,98,0.00,,,0.30,0.000000,,2013-07-20 05:32:00,
2013-07-20 00:52:00,73.0,72.0,-100.00,SE,141,0.0,0.0,98,0.00,,,0.30,0.000000,,2013-07-20 05:52:00,
2013-07-20 01:01:00,73.0,72.0,-100.00,SE,141,0.0,0.0,98,0.00,,,0.30,0.000000,,2013-07-20 06:01:00,
2013-07-20 01:22:00,72.0,71.0,-100.00,SSW,200,0.0,2.0,98,0.00,,,0.30,0.000000,,2013-07-20 06:22:00,
2013-07-20 01:32:00,72.0,71.0,-100.00,SSW,200,0.0,2.0,98,0.00,,,0.30,0.000000,,2013-07-20 06:32:00,
2013-07-20 01:43:00,72.0,71.0,-100.00,SSW,200,0.0,2.0,98,0.00,,,0.30,0.000000,,2013-07-20 06:43:00,
2013-07-20 01:52:00,72.0,71.0,-100.00,SSW,200,0.0,2.0,98,0.00,,,0.30,0.000000,,2013-07-20 06:52:00,
2013-07-20 02:01:00,72.0,71.0,-100.00,SSW,200,0.0,2.0,98,0.00,,,0.30,0.000000,,2013-07-20 07:01:00,
2013-07-20 02:22:00,71.0,70.0,-100.00,ENE,70,0.0,0.0,98,0.00,,,0.30,0.000000,,2013-07-20 07:22:00,
2013-07-20 02:33:00,71.0,70.0,-100.00,ENE,70,0.0,0.0,98,0.00,,,0.30,0.000000,,2013-07-20 07:33:00,
2013-07-20 02:44:00,71.0,70.0,-100.00,ENE,70,0.0,0.0,98,0.00,,,0.30,0.000000,,2013-07-20 07:44:00,
2013-07-20 02:54:00,71.0,70.0,-100.00,ENE,70,0.0,0.0,98,0.00,,,0.30,0.000000,,2013-07-20 07:54:00,
2013-07-20 03:01:00,71.0,70.0,-100.00,ENE,70,0.0,0.0,98,0.00,,,0.30,0.000000,,2013-07-20 08:01:00,
2013-07-20 03:22:00,71.0,70.0,-100.00,SSE,149,0.0,0.0,98,0.00,,,0.30,0.000000,,2013-07-20 08:22:00,
2013-07-20 03:32:00,71.0,70.0,-100.00,SSE,149,0.0,0.0,98,0.00,,,0.30,0.000000,,2013-07-20 08:32:00,
2013-07-20 03:44:00,71.0,70.0,-100.00,SSE,149,0.0,0.0,98,0.00,,,0.30,0.000000,,2013-07-20 08:44:00,
2013-07-20 03:52:00,71.0,70.0,-100.00,SSE,149,0.0,0.0,98,0.00,,,0.30,0.000000,,2013-07-20 08:52:00,
2013-07-20 04:02:00,71.0,70.0,-100.00,SSE,149,0.0,0.0,98,0.00,,,0.30,0.000000,,2013-07-20 09:02:00,
2013-07-20 04:22:00,71.0,70.0,-100.00,South,185,0.0,0.0,98,0.00,,,0.30,0.000000,,2013-07-20 09:22:00,
2013-07-20 04:33:00,71.0,70.0,-100.00,South,185,0.0,0.0,98,0.00,,,0.30,0.000000,,2013-07-20 09:33:00,
2013-07-20 04:43:00,71.0,70.0,-100.00,South,185,0.0,0.0,98,0.00,,,0.30,0.000000,,2013-07-20 09:43:00,
2013-07-20 04:53:00,71.0,70.0,-100.00,South,185,0.0,0.0,98,0.00,,,0.30,0.000000,,2013-07-20 09:53:00,
2013-07-20 05:01:00,71.0,70.0,-100.00,South,185,0.0,0.0,98,0.00,,,0.30,0.000000,,2013-07-20 10:01:00,
2013-07-20 05:22:00,71.0,70.0,-100.00,WSW,244,0.0,0.0,98,0.00,,,0.30,0.000000,,2013-07-20 10:22:00,
2013-07-20 05:32:00,71.0,70.0,-100.00,WSW,244,0.0,0.0,98,0.00,,,0.30,0.000000,,2013-07-20 10:32:00,
2013-07-20 05:42:00,71.0,70.0,-100.00,WSW,244,0.0,0.0,98,0.00,,,0.30,0.000000,,2013-07-20 10:42:00,
2013-07-20 05:52:00,71.0,70.0,-100.00,WSW,244,0.0,0.0,98,0.00,,,0.30,0.000000,,2013-07-20 10:52:00,
2013-07-20 06:01:00,71.0,70.0,-100.00,WSW,244,0.0,0.0,98,0.00,,,0.30,0.000000,,2013-07-20 11:01:00,
2013-07-20 06:22:00,71.0,71.0,-100.00,East,91,0.0,0.0,99,0.00,,,0.30,0.000000,,2013-07-20 11:22:00,
2013-07-20 06:32:00,71.0,71.0,-100.00,East,91,0.0,0.0,99,0.00,,,0.30,0.000000,,2013-07-20 11:32:00,
2013-07-20 06:43:00,71.0,71.0,-100.00,East,91,0.0,0.0,99,0.00,,,0.30,0.000000,,2013-07-20 11:43:00,
2013-07-20 06:52:00,71.0,71.0,-100.00,East,91,0.0,0.0,99,0.00,,,0.30,0.000000,,2013-07-20 11:52:00,
2013-07-20 07:01:00,71.0,71.0,-100.00,East,91,0.0,0.0,99,0.00,,,0.30,0.000000,,2013-07-20 12:01:00,
2013-07-20 07:22:00,71.0,70.0,-100.00,NNW,339,0.0,0.0,98,0.00,,,0.30,10.000000,,2013-07-20 12:22:00,
2013-07-20 07:32:00,71.0,70.0,-100.00,NNW,339,0.0,0.0,98,0.00,,,0.30,10.000000,,2013-07-20 12:32:00,
2013-07-20 07:52:00,71.0,70.0,-100.00,NNW,339,0.0,0.0,98,0.00,,,0.30,10.000000,,2013-07-20 12:52:00,
2013-07-20 08:01:00,71.0,70.0,-100.00,NNW,339,0.0,0.0,98,0.00,,,0.30,10.000000,,2013-07-20 13:01:00,
2013-07-20 08:32:00,73.0,72.0,-100.00,SE,133,0.0,0.0,98,0.00,,,0.30,113.000000,,2013-07-20 13:32:00,
2013-07-20 08:43:00,73.0,72.0,-100.00,SE,133,0.0,0.0,98,0.00,,,0.30,113.000000,,2013-07-20 13:43:00,
2013-07-20 08:53:00,73.0,72.0,-100.00,SE,133,0.0,0.0,98,0.00,,,0.30,113.000000,,2013-07-20 13:53:00,
2013-07-20 09:02:00,73.0,72.0,-100.00,SE,133,0.0,0.0,98,0.00,,,0.30,113.000000,,2013-07-20 14:02:00,
2013-07-20 09:22:00,77.0,74.0,-100.00,SE,144,0.0,0.0,91,0.00,,,0.30,234.000000,,2013-07-20 14:22:00,
2013-07-20 09:32:00,77.0,74.0,-100.00,SE,144,0.0,0.0,91,0.00,,,0.30,234.000000,,2013-07-20 14:32:00,
2013-07-20 09:43:00,77.0,74.0,-100.00,SE,144,0.0,0.0,91,0.00,,,0.30,234.000000,,2013-07-20 14:43:00,
2013-07-20 09:53:00,77.0,74.0,-100.00,SE,144,0.0,0.0,91,0.00,,,0.30,234.000000,,2013-07-20 14:53:00,
2013-07-20 10:01:00,77.0,74.0,-100.00,SE,144,0.0,0.0,91,0.00,,,0.30,234.000000,,2013-07-20 15:01:00,
2013-07-20 10:23:00,83.0,76.0,-100.00,SSW,212,0.0,2.0,79,0.00,,,0.30,561.000000,,2013-07-20 15:23:00,
2013-07-20 10:33:00,83.0,76.0,-100.00,SSW,212,0.0,2.0,79,0.00,,,0.30,561.000000,,2013-07-20 15:33:00,
2013-07-20 10:44:00,83.0,76.0,-100.00,SSW,212,0.0,2.0,79,0.00,,,0.30,561.000000,,2013-07-20 15:44:00,
2013-07-20 10:53:00,83.0,76.0,-100.00,SSW,212,0.0,2.0,79,0.00,,,0.30,561.000000,,2013-07-20 15:53:00,
2013-07-20 11:01:00,83.0,76.0,-100.00,SSW,212,0.0,2.0,79,0.00,,,0.30,561.000000,,2013-07-20 16:01:00,
2013-07-20 11:22:00,87.0,75.0,-100.00,SW,218,0.0,2.0,67,0.00,,,0.23,739.000000,,2013-07-20 16:22:00,
2013-07-20 11:32:00,87.0,75.0,-100.00,SW,218,0.0,2.0,67,0.00,,,0.23,739.000000,,2013-07-20 16:32:00,
2013-07-20 11:44:00,87.0,75.0,-100.00,SW,218,0.0,2.0,67,0.00,,,0.23,739.000000,,2013-07-20 16:44:00,
2013-07-20 11:52:00,87.0,75.0,-100.00,SW,218,0.0,2.0,67,0.00,,,0.23,739.000000,,2013-07-20 16:52:00,
2013-07-20 12:02:00,87.0,75.0,-100.00,SW,218,0.0,2.0,67,0.00,,,0.23,739.000000,,2013-07-20 17:02:00,
2013-07-20 12:22:00,89.0,73.0,-100.00,NNW,327,1.0,2.0,59,0.00,,,0.13,989.000000,,2013-07-20 17:22:00,
2013-07-20 12:32:00,89.0,73.0,-100.00,NNW,327,1.0,2.0,59,0.00,,,0.13,989.000000,,2013-07-20 17:32:00,
2013-07-20 12:43:00,89.0,73.0,-100.00,NNW,327,1.0,2.0,59,0.00,,,0.13,989.000000,,2013-07-20 17:43:00,
2013-07-20 12:53:00,89.0,73.0,-100.00,NNW,327,1.0,2.0,59,0.00,,,0.13,989.000000,,2013-07-20 17:53:00,
2013-07-20 13:01:00,89.0,73.0,-100.00,NNW,327,1.0,2.0,59,0.00,,,0.13,989.000000,,2013-07-20 18:01:00,
2013-07-20 13:03:00,87.0,75.0,-100.00,NW,306,1.0,2.0,67,0.00,,,0.02,658.000000,,2013-07-20 18:03:00,
2013-07-20 13:25:00,87.0,75.0,-100.00,NW,306,1.0,2.0,67,0.00,,,0.02,658.000000,,2013-07-20 18:25:00,
2013-07-20 13:37:00,87.0,75.0,-100.00,NW,306,1.0,2.0,67,0.00,,,0.02,658.000000,,2013-07-20 18:37:00,
2013-07-20 13:47:00,87.0,75.0,-100.00,NW,306,1.0,2.0,67,0.00,,,0.02,658.000000,,2013-07-20 18:47:00,
2013-07-20 13:59:00,87.0,75.0,-100.00,NW,306,1.0,2.0,67,0.00,,,0.02,658.000000,,2013-07-20 18:59:00,
2013-07-20 14:03:00,88.0,69.0,-100.00,SSE,153,1.0,2.0,54,0.00,,,0.00,774.000000,,2013-07-20 19:03:00,
2013-07-20 14:26:00,88.0,69.0,-100.00,SSE,153,1.0,2.0,54,0.00,,,0.00,774.000000,,2013-07-20 19:26:00,
2013-07-20 14:35:00,88.0,69.0,-100.00,SSE,153,1.0,2.0,54,0.00,,,0.00,774.000000,,2013-07-20 19:35:00,
2013-07-20 14:44:00,88.0,69.0,-100.00,SSE,153,1.0,2.0,54,0.00,,,0.00,774.000000,,2013-07-20 19:44:00,
2013-07-20 14:56:00,88.0,69.0,-100.00,SSE,153,1.0,2.0,54,0.00,,,0.00,774.000000,,2013-07-20 19:56:00,
2013-07-20 15:03:00,77.0,72.0,-100.00,NW,323,6.0,12.0,85,-99.99,,,0.01,169.000000,,2013-07-20 20:03:00,
2013-07-20 15:24:00,77.0,72.0,-100.00,NW,323,6.0,12.0,85,-99.99,,,0.01,169.000000,,2013-07-20 20:24:00,
2013-07-20 15:35:00,77.0,72.0,-100.00,NW,323,6.0,12.0,85,-99.99,,,0.01,169.000000,,2013-07-20 20:35:00,
2013-07-20 15:47:00,77.0,72.0,-100.00,NW,323,6.0,12.0,85,-99.99,,,0.01,169.000000,,2013-07-20 20:47:00,
2013-07-20 15:57:00,77.0,72.0,-100.00,NW,323,6.0,12.0,85,-99.99,,,0.01,169.000000,,2013-07-20 20:57:00,
2013-07-20 16:03:00,80.0,75.0,-100.00,SE,124,5.0,10.0,86,0.00,,,0.01,261.000000,,2013-07-20 21:03:00,
2013-07-20 16:28:00,80.0,75.0,-100.00,SE,124,5.0,10.0,86,0.00,,,0.01,261.000000,,2013-07-20 21:28:00,
2013-07-20 16:36:00,80.0,75.0,-100.00,SE,124,5.0,10.0,86,0.00,,,0.01,261.000000,,2013-07-20 21:36:00,
2013-07-20 16:48:00,80.0,75.0,-100.00,SE,124,5.0,10.0,86,0.00,,,0.01,261.000000,,2013-07-20 21:48:00,
2013-07-20 16:56:00,80.0,75.0,-100.00,SE,124,5.0,10.0,86,0.00,,,0.01,261.000000,,2013-07-20 21:56:00,
2013-07-20 17:03:00,85.0,74.0,-100.00,South,173,7.0,11.0,70,0.00,,,0.01,632.000000,,2013-07-20 22:03:00,
2013-07-20 17:28:00,85.0,74.0,-100.00,South,173,7.0,11.0,70,0.00,,,0.01,632.000000,,2013-07-20 22:28:00,
2013-07-20 17:37:00,85.0,74.0,-100.00,South,173,7.0,11.0,70,0.00,,,0.01,632.000000,,2013-07-20 22:37:00,
2013-07-20 17:49:00,85.0,74.0,-100.00,South,173,7.0,11.0,70,0.00,,,0.01,632.000000,,2013-07-20 22:49:00,
2013-07-20 17:57:00,85.0,74.0,-100.00,South,173,7.0,11.0,70,0.00,,,0.01,632.000000,,2013-07-20 22:57:00,
2013-07-20 18:03:00,84.0,73.0,-100.00,SSW,203,5.0,13.0,70,0.00,,,0.01,469.000000,,2013-07-20 23:03:00,
2013-07-20 18:29:00,84.0,73.0,-100.00,SSW,203,5.0,13.0,70,0.00,,,0.01,469.000000,,2013-07-20 23:29:00,
2013-07-20 18:39:00,84.0,73.0,-100.00,SSW,203,5.0,13.0,70,0.00,,,0.01,469.000000,,2013-07-20 23:39:00,
2013-07-20 18:46:00,84.0,73.0,-100.00,SSW,203,5.0,13.0,70,0.00,,,0.01,469.000000,,2013-07-20 23:46:00,
2013-07-20 18:57:00,84.0,73.0,-100.00,SSW,203,5.0,13.0,70,0.00,,,0.01,469.000000,,2013-07-20 23:57:00,
2013-07-20 19:03:00,83.0,73.0,-100.00,SSE,151,5.0,10.0,71,0.00,,,0.01,302.000000,,2013-07-21 00:03:00,
2013-07-20 19:45:00,83.0,73.0,-100.00,SSE,151,5.0,10.0,71,0.00,,,0.01,302.000000,,2013-07-21 00:45:00,
2013-07-20 19:56:00,83.0,73.0,-100.00,SSE,151,5.0,10.0,71,0.00,,,0.01,302.000000,,2013-07-21 00:56:00,
2013-07-20 20:03:00,79.0,71.0,-100.00,SSW,201,4.0,11.0,76,0.00,,,0.01,90.000000,,2013-07-21 01:03:00,
2013-07-20 20:29:00,79.0,71.0,-100.00,SSW,201,4.0,11.0,76,0.00,,,0.01,90.000000,,2013-07-21 01:29:00,
2013-07-20 20:37:00,79.0,71.0,-100.00,SSW,201,4.0,11.0,76,0.00,,,0.01,90.000000,,2013-07-21 01:37:00,
2013-07-20 20:49:00,-999.0,-99.9,-100.00,SSW,201,4.0,11.0,-999,-99.99,,,-99.99,90.000000,,2013-07-21 01:49:00,
2013-07-20 20:59:00,79.0,71.0,-100.00,SSW,201,4.0,11.0,76,0.00,,,0.01,90.000000,,2013-07-21 01:59:00,
2013-07-20 21:03:00,77.0,71.0,-100.00,SE,129,1.0,7.0,82,0.00,,,0.01,2.000000,,2013-07-21 02:03:00,
2013-07-20 21:38:00,77.0,71.0,-100.00,SE,129,1.0,7.0,82,0.00,,,0.01,2.000000,,2013-07-21 02:38:00,
2013-07-20 21:46:00,77.0,71.0,-100.00,SE,129,1.0,7.0,82,0.00,,,0.01,2.000000,,2013-07-21 02:46:00,
2013-07-20 21:58:00,77.0,71.0,-100.00,SE,129,1.0,7.0,82,0.00,,,0.01,2.000000,,2013-07-21 02:58:00,
2013-07-20 22:26:00,74.0,71.0,-100.00,NNE,12,0.0,2.0,89,0.00,,,0.01,0.000000,,2013-07-21 03:26:00,
2013-07-20 22:37:00,74.0,71.0,-100.00,NNE,12,0.0,2.0,89,0.00,,,0.01,0.000000,,2013-07-21 03:37:00,
2013-07-20 22:47:00,74.0,71.0,-100.00,NNE,12,0.0,2.0,89,0.00,,,0.01,0.000000,,2013-07-21 03:47:00,
2013-07-20 23:00:00,74.0,71.0,-100.00,NNE,12,0.0,2.0,89,0.00,,,0.01,0.000000,,2013-07-21 04:00:00,
2013-07-20 23:01:00,74.0,71.0,-100.00,NNE,12,0.0,2.0,89,0.00,,,0.01,0.000000,,2013-07-21 04:01:00,
2013-07-20 23:22:00,73.0,71.0,-100.00,ENE,73,0.0,0.0,94,0.00,,,0.01,0.000000,,2013-07-21 04:22:00,
2013-07-20 23:32:00,73.0,71.0,-100.00,ENE,73,0.0,0.0,94,0.00,,,0.01,0.000000,,2013-07-21 04:32:00,
2013-07-20 23:43:00,73.0,71.0,-100.00,ENE,73,0.0,0.0,94,0.00,,,0.01,0.000000,,2013-07-21 04:43:00,
2013-07-20 23:53:00,73.0,71.0,-100.00,ENE,73,0.0,0.0,94,0.00,,,0.01,0.000000,,2013-07-21 04:53:00,